createdAt,value
2017-10-29T00:02:40.931Z,99.99
2017-10-29T00:07:40.645Z,99.99
2017-10-29T00:12:36.357Z,99.99
2017-10-29T00:17:32.568Z,99.99
2017-10-29T00:22:28.489Z,99.99
2017-10-29T00:27:24.808Z,99.99
2017-10-29T00:32:20.627Z,99.99
2017-10-29T00:37:16.586Z,99.99
2017-10-29T00:42:13.340Z,99.99
2017-10-29T00:47:10.604Z,99.99
2017-10-29T00:52:06.495Z,99.99
2017-10-29T00:57:01.911Z,99.99
2017-10-29T01:01:57.901Z,99.99
2017-10-29T01:06:53.730Z,99.99
2017-10-29T01:11:49.492Z,99.99
2017-10-29T01:16:45.099Z,99.99
2017-10-29T01:21:40.982Z,99.99
2017-10-29T01:26:37.963Z,99.99
2017-10-29T01:31:33.371Z,99.99
2017-10-29T01:36:29.950Z,99.99
2017-10-29T01:41:26.276Z,99.99
2017-10-29T01:46:23.283Z,99.99
2017-10-29T01:51:19.810Z,99.99
2017-10-29T01:56:17.393Z,99.99
2017-10-29T02:01:12.644Z,99.99
2017-10-29T02:06:08.466Z,99.99
2017-10-29T02:11:05.037Z,99.99
2017-10-29T02:16:01.917Z,99.99
2017-10-29T02:20:57.677Z,99.99
2017-10-29T02:25:55.668Z,99.99
2017-10-29T02:30:51.876Z,99.99
2017-10-29T02:35:47.380Z,99.99
2017-10-29T02:40:44.359Z,99.99
2017-10-29T02:45:42.493Z,99.99
2017-10-29T02:50:38.609Z,99.99
2017-10-29T02:55:34.073Z,99.99
2017-10-29T03:00:29.921Z,99.99
2017-10-29T03:05:27.411Z,99.99
2017-10-29T03:10:24.267Z,99.99
2017-10-29T03:15:19.190Z,99.99
2017-10-29T03:20:16.731Z,99.99
2017-10-29T03:25:13.489Z,99.99
2017-10-29T03:30:08.676Z,99.99
2017-10-29T03:35:05.526Z,99.99
2017-10-29T03:40:01.440Z,99.99
2017-10-29T03:44:57.432Z,99.99
2017-10-29T03:49:54.067Z,99.99
2017-10-29T03:54:49.790Z,99.99
2017-10-29T03:59:45.905Z,99.99
2017-10-29T04:04:43.996Z,99.99
2017-10-29T04:09:40.162Z,99.99
2017-10-29T04:14:36.525Z,99.99
2017-10-29T04:19:33.236Z,99.99
2017-10-29T04:24:30.093Z,99.99
2017-10-29T04:29:25.713Z,99.99
2017-10-29T04:34:22.726Z,99.99
2017-10-29T04:39:20.463Z,99.99
2017-10-29T04:44:16.920Z,99.99
2017-10-29T04:49:15.101Z,99.99
2017-10-29T04:54:11.651Z,99.99
2017-10-29T04:59:07.146Z,99.99
2017-10-29T05:04:03.047Z,99.99
2017-10-29T05:09:00.167Z,99.99
2017-10-29T05:13:59.605Z,99.99
2017-10-29T05:18:56.628Z,99.99
2017-10-29T05:23:53.019Z,99.99
2017-10-29T05:28:48.824Z,99.99
2017-10-29T05:33:47.628Z,99.99
2017-10-29T05:38:43.148Z,99.99
2017-10-29T05:43:39.887Z,99.99
2017-10-29T05:48:41.686Z,99.99
2017-10-29T05:53:39.564Z,99.99
2017-10-29T05:58:35.725Z,99.99
2017-10-29T06:03:33.323Z,99.99
2017-10-29T06:08:28.500Z,99.99
2017-10-29T06:13:24.297Z,99.99
2017-10-29T06:18:19.646Z,99.99
2017-10-29T06:23:15.635Z,99.99
2017-10-29T06:28:12.616Z,99.99
2017-10-29T06:33:09.404Z,99.99
2017-10-29T06:38:04.781Z,99.99
2017-10-29T06:43:01.102Z,99.99
2017-10-29T06:47:57.813Z,99.99
2017-10-29T06:52:53.676Z,99.99
2017-10-29T06:57:49.383Z,99.99
2017-10-29T07:02:46.403Z,99.99
2017-10-29T07:07:43.180Z,99.99
2017-10-29T07:12:39.943Z,99.99
2017-10-29T07:17:37.459Z,99.99
2017-10-29T07:22:33.459Z,99.99
2017-10-29T07:27:30.324Z,99.99
2017-10-29T07:32:27.924Z,99.99
2017-10-29T07:37:30.835Z,99.99
2017-10-29T07:42:26.016Z,99.99
2017-10-29T07:47:23.862Z,99.99
2017-10-29T07:52:20.392Z,99.99
2017-10-29T07:57:16.551Z,99.99
2017-10-29T08:02:13.396Z,99.99
2017-10-29T08:07:10.968Z,99.99
2017-10-29T08:12:08.120Z,99.99
2017-10-29T08:17:04.443Z,99.99
2017-10-29T08:22:00.643Z,99.99
2017-10-29T08:26:57.216Z,99.99
2017-10-29T08:31:54.051Z,99.99
2017-10-29T08:36:50.316Z,99.99
2017-10-29T08:41:46.896Z,99.99
2017-10-29T08:46:42.766Z,99.99
2017-10-29T08:51:39.682Z,99.99
2017-10-29T08:56:35.308Z,99.99
2017-10-29T09:01:32.580Z,99.99
2017-10-29T09:06:28.450Z,99.99
2017-10-29T09:11:26.812Z,99.99
2017-10-29T09:16:23.057Z,99.99
2017-10-29T09:21:19.307Z,99.99
2017-10-29T09:26:15.825Z,99.99
2017-10-29T09:31:13.874Z,99.99
2017-10-29T09:36:10.214Z,99.99
2017-10-29T09:41:05.779Z,99.99
2017-10-29T09:46:02.609Z,99.99
2017-10-29T09:51:00.179Z,96.41
2017-10-29T09:55:56.451Z,95.27
2017-10-29T10:00:53.414Z,96.94
2017-10-29T10:05:50.203Z,97.89
2017-10-29T10:10:48.315Z,96.37
2017-10-29T10:15:43.501Z,96.08
2017-10-29T10:20:39.961Z,96.27
2017-10-29T10:25:35.881Z,97.71
2017-10-29T10:30:32.840Z,97.75
2017-10-29T10:35:29.409Z,96.32
2017-10-29T10:40:24.969Z,97.85
2017-10-29T10:45:20.738Z,95.75
2017-10-29T10:50:16.610Z,95.37
2017-10-29T10:55:14.108Z,91.21
2017-10-29T11:00:10.273Z,92.26
2017-10-29T11:05:07.307Z,91.12
2017-10-29T11:10:03.238Z,91.78
2017-10-29T11:15:00.133Z,92.17
2017-10-29T11:19:55.574Z,91.98
2017-10-29T11:24:52.252Z,88.35
2017-10-29T11:29:49.103Z,94.46
2017-10-29T11:34:44.971Z,98.13
2017-10-29T11:39:41.832Z,99.61
2017-10-29T11:44:36.812Z,99.99
2017-10-29T11:49:31.987Z,99.99
2017-10-29T11:54:28.194Z,99.99
2017-10-29T11:59:23.999Z,99.99
2017-10-29T12:04:19.556Z,99.99
2017-10-29T12:09:16.236Z,99.99
2017-10-29T12:14:11.986Z,99.99
2017-10-29T12:19:09.207Z,99.99
2017-10-29T12:24:04.651Z,99.99
2017-10-29T12:29:01.876Z,99.99
2017-10-29T12:33:57.428Z,99.99
2017-10-29T12:38:53.250Z,99.99
2017-10-29T12:43:49.195Z,99.99
2017-10-29T12:48:45.158Z,99.99
2017-10-29T12:53:40.764Z,99.99
2017-10-29T12:58:37.265Z,99.46
2017-10-29T13:03:33.405Z,97.37
2017-10-29T13:08:29.347Z,96.03
2017-10-29T13:13:26.335Z,95.46
2017-10-29T13:18:22.938Z,95.84
2017-10-29T13:23:19.403Z,95.65
2017-10-29T13:28:14.856Z,96.03
2017-10-29T13:33:11.077Z,93.55
2017-10-29T13:38:08.084Z,92.88
2017-10-29T13:43:04.599Z,93.17
2017-10-29T13:48:00.121Z,93.93
2017-10-29T13:52:56.126Z,93.93
2017-10-29T13:57:52.744Z,93.27
2017-10-29T14:02:49.501Z,94.70
2017-10-29T14:07:44.796Z,94.89
2017-10-29T14:12:40.160Z,97.03
2017-10-29T14:17:36.748Z,99.70
2017-10-29T14:22:32.101Z,99.99
2017-10-29T14:27:27.799Z,99.99
2017-10-29T14:32:24.660Z,99.99
2017-10-29T14:37:20.458Z,99.99
2017-10-29T14:42:16.064Z,99.99
2017-10-29T14:47:11.771Z,99.99
2017-10-29T14:52:07.061Z,99.99
2017-10-29T14:57:03.114Z,99.99
2017-10-29T15:01:58.914Z,99.99
2017-10-29T15:06:54.593Z,99.99
2017-10-29T15:11:52.447Z,99.99
2017-10-29T15:16:50.041Z,99.99
2017-10-29T15:21:45.600Z,99.99
2017-10-29T15:26:41.591Z,99.99
2017-10-29T15:31:39.362Z,99.99
2017-10-29T15:36:35.483Z,99.99
2017-10-29T15:41:30.706Z,99.99
2017-10-29T15:46:26.580Z,99.99
2017-10-29T15:51:22.303Z,99.99
2017-10-29T15:56:19.326Z,99.99
2017-10-29T16:01:14.704Z,99.99
2017-10-29T16:06:11.196Z,99.99
2017-10-29T16:11:07.548Z,99.99
2017-10-29T16:16:04.051Z,99.99
2017-10-29T16:20:59.428Z,99.99
2017-10-29T16:25:55.078Z,99.99
2017-10-29T16:30:51.889Z,99.99
2017-10-29T16:35:47.368Z,99.99
2017-10-29T16:40:42.910Z,99.99
2017-10-29T16:45:38.584Z,99.99
2017-10-29T16:50:34.188Z,99.99
2017-10-29T16:55:30.186Z,99.99
2017-10-29T17:00:27.019Z,99.99
2017-10-29T17:05:22.520Z,99.99
2017-10-29T17:10:17.965Z,99.99
2017-10-29T17:15:13.401Z,99.99
2017-10-29T17:20:09.361Z,99.99
2017-10-29T17:25:05.107Z,99.99
2017-10-29T17:30:01.808Z,99.99
2017-10-29T17:34:58.773Z,99.99
2017-10-29T17:39:54.283Z,99.99
2017-10-29T17:44:51.067Z,99.99
2017-10-29T17:49:46.383Z,99.99
2017-10-29T17:54:43.248Z,99.99
2017-10-29T17:59:39.308Z,99.99
2017-10-29T18:04:34.654Z,99.99
2017-10-29T18:09:30.761Z,99.99
2017-10-29T18:14:26.555Z,99.99
2017-10-29T18:19:23.493Z,99.99
2017-10-29T18:24:19.462Z,99.99
2017-10-29T18:29:16.267Z,99.99
2017-10-29T18:34:11.704Z,99.99
2017-10-29T18:39:07.209Z,99.99
2017-10-29T18:44:02.890Z,99.99
2017-10-29T18:48:59.696Z,99.99
2017-10-29T18:53:55.947Z,99.99
2017-10-29T18:58:51.429Z,99.99
2017-10-29T19:03:48.275Z,99.99
2017-10-29T19:08:43.724Z,99.99
2017-10-29T19:13:39.334Z,99.99
2017-10-29T19:18:34.825Z,99.99
2017-10-29T19:23:30.550Z,99.99
2017-10-29T19:28:27.247Z,99.99
2017-10-29T19:33:22.890Z,99.99
2017-10-29T19:38:19.887Z,99.99
2017-10-29T19:43:15.278Z,99.99
2017-10-29T19:48:12.118Z,99.99
2017-10-29T19:53:07.055Z,99.99
2017-10-29T19:58:03.040Z,99.99
2017-10-29T20:03:00.615Z,99.99
2017-10-29T20:07:56.112Z,99.99
2017-10-29T20:12:52.934Z,99.99
2017-10-29T20:17:48.410Z,99.99
2017-10-29T20:22:45.077Z,99.99
2017-10-29T20:27:40.562Z,99.99
2017-10-29T20:32:37.246Z,99.99
2017-10-29T20:37:32.778Z,99.99
2017-10-29T20:42:29.498Z,99.99
2017-10-29T20:47:24.991Z,99.99
2017-10-29T20:52:20.438Z,99.99
2017-10-29T20:57:17.108Z,99.99
2017-10-29T21:02:13.162Z,99.99
2017-10-29T21:07:08.934Z,99.99
2017-10-29T21:12:05.697Z,99.99
2017-10-29T21:17:01.650Z,99.99
2017-10-29T21:21:58.374Z,99.99
2017-10-29T21:26:53.715Z,99.99
2017-10-29T21:31:51.146Z,99.99
2017-10-29T21:36:47.357Z,99.99
2017-10-29T21:41:44.054Z,99.99
2017-10-29T21:46:41.025Z,99.99
2017-10-29T21:51:38.959Z,99.99
2017-10-29T21:56:34.825Z,99.99
2017-10-29T22:01:30.596Z,99.99
2017-10-29T22:06:26.339Z,99.99
2017-10-29T22:11:21.986Z,99.99
2017-10-29T22:16:17.676Z,99.99
2017-10-29T22:21:13.732Z,99.99
2017-10-29T22:26:09.243Z,99.99
2017-10-29T22:31:05.463Z,99.99
2017-10-29T22:36:01.234Z,99.99
2017-10-29T22:40:56.770Z,99.99
2017-10-29T22:45:52.922Z,99.99
2017-10-29T22:50:49.874Z,99.99
2017-10-29T22:55:45.332Z,99.99
2017-10-29T23:00:42.341Z,99.99
2017-10-29T23:05:37.893Z,99.99
2017-10-29T23:10:33.757Z,99.99
2017-10-29T23:15:29.625Z,99.99
2017-10-29T23:25:25.651Z,99.99
2017-10-29T23:30:21.864Z,99.99
2017-10-29T23:35:17.606Z,99.99
2017-10-29T23:40:14.075Z,99.99
2017-10-29T23:45:09.786Z,99.99
2017-10-29T23:50:05.465Z,99.99
2017-10-29T23:55:01.976Z,99.99
2017-10-29T23:59:57.466Z,99.99
